Time,TemperatureF,DewpointF,PressureIn,WindDirection,WindDirectionDegrees,WindSpeedMPH,WindSpeedGustMPH,Humidity,HourlyPrecipIn,Conditions,Clouds,dailyrainin,SolarRadiationWatts/m^2,SoftwareType,DateUTC
2013-11-11 00:02:00,71.3,65.9,30.12,NE,52,5.0,6.0,83,0.00,,,0.00,0,Wunderground v.1.15,2013-11-11 05:02:00,
2013-11-11 00:07:00,71.1,66.0,30.12,NE,41,5.0,6.0,84,0.00,,,0.00,0,Wunderground v.1.15,2013-11-11 05:07:00,
2013-11-11 00:12:00,70.9,65.8,30.12,NE,35,5.0,5.0,84,0.00,,,0.00,0,Wunderground v.1.15,2013-11-11 05:12:00,
2013-11-11 00:17:00,70.9,65.8,30.12,ENE,61,6.0,6.0,84,0.00,,,0.00,0,Wunderground v.1.15,2013-11-11 05:17:00,
2013-11-11 00:27:00,70.8,66.1,30.12,ENE,59,4.0,6.0,85,0.00,,,0.00,0,Wunderground v.1.15,2013-11-11 05:27:00,
2013-11-11 00:37:00,70.6,65.9,30.12,ENE,58,3.0,3.0,85,0.00,,,0.00,0,Wunderground v.1.15,2013-11-11 05:37:00,
2013-11-11 00:42:00,70.4,65.7,30.12,East,82,4.0,7.0,85,0.00,,,0.00,0,Wunderground v.1.15,2013-11-11 05:42:00,
2013-11-11 00:52:00,70.3,65.9,30.12,ENE,65,3.0,6.0,86,0.00,,,0.00,0,Wunderground v.1.15,2013-11-11 05:52:00,
2013-11-11 00:57:00,70.1,65.7,30.12,NE,48,4.0,6.0,86,0.00,,,0.00,0,Wunderground v.1.15,2013-11-11 05:57:00,
2013-11-11 01:02:00,69.9,65.5,30.12,ENE,62,3.0,3.0,86,0.00,,,0.00,0,Wunderground v.1.15,2013-11-11 06:02:00,
2013-11-11 01:07:00,69.9,65.5,30.12,NE,51,2.0,5.0,86,0.00,,,0.00,0,Wunderground v.1.15,2013-11-11 06:07:00,
2013-11-11 01:17:00,69.8,65.8,30.12,NE,52,3.0,3.0,87,0.00,,,0.00,0,Wunderground v.1.15,2013-11-11 06:17:00,
2013-11-11 01:22:00,69.6,65.6,30.12,NE,45,3.0,4.0,87,0.00,,,0.00,0,Wunderground v.1.15,2013-11-11 06:22:00,
2013-11-11 01:27:00,69.6,65.6,30.12,NE,54,2.0,4.0,87,0.00,,,0.00,0,Wunderground v.1.15,2013-11-11 06:27:00,
2013-11-11 01:37:00,69.4,65.7,30.12,ENE,58,3.0,7.0,88,0.00,,,0.00,0,Wunderground v.1.15,2013-11-11 06:37:00,
2013-11-11 01:42:00,69.3,65.6,30.11,ENE,62,3.0,5.0,88,0.00,,,0.00,0,Wunderground v.1.15,2013-11-11 06:42:00,
2013-11-11 01:52:00,69.1,65.4,30.11,NE,40,4.0,4.0,88,0.00,,,0.00,0,Wunderground v.1.15,2013-11-11 06:52:00,
2013-11-11 01:57:00,69.1,65.4,30.11,ENE,76,4.0,6.0,88,0.00,,,0.00,0,Wunderground v.1.15,2013-11-11 06:57:00,
2013-11-11 02:07:00,69.1,65.7,30.11,ENE,66,4.0,5.0,89,0.00,,,0.00,0,Wunderground v.1.15,2013-11-11 07:07:00,
2013-11-11 02:17:00,68.9,65.5,30.11,NE,37,2.0,5.0,89,0.00,,,0.00,0,Wunderground v.1.15,2013-11-11 07:17:00,
2013-11-11 02:22:00,68.9,65.5,30.11,NE,49,3.0,3.0,89,0.00,,,0.00,0,Wunderground v.1.15,2013-11-11 07:22:00,
2013-11-11 02:32:00,68.9,65.5,30.11,East,83,3.0,5.0,89,0.00,,,0.00,0,Wunderground v.1.15,2013-11-11 07:32:00,
2013-11-11 02:37:00,68.8,65.4,30.10,NE,49,3.0,5.0,89,0.00,,,0.00,0,Wunderground v.1.15,2013-11-11 07:37:00,
2013-11-11 02:47:00,68.6,65.5,30.10,ENE,71,3.0,6.0,90,0.00,,,0.00,0,Wunderground v.1.15,2013-11-11 07:47:00,
2013-11-11 02:57:00,68.4,65.4,30.10,ENE,62,3.0,6.0,90,0.00,,,0.00,0,Wunderground v.1.15,2013-11-11 07:57:00,
2013-11-11 03:07:00,68.3,65.3,30.11,ENE,58,4.0,6.0,90,0.00,,,0.00,0,Wunderground v.1.15,2013-11-11 08:07:00,
2013-11-11 03:12:00,68.1,65.1,30.11,ENE,58,4.0,7.0,90,0.00,,,0.00,0,Wunderground v.1.15,2013-11-11 08:12:00,
2013-11-11 03:22:00,68.1,65.1,30.11,NE,45,2.0,2.0,90,0.00,,,0.00,0,Wunderground v.1.15,2013-11-11 08:22:00,
2013-11-11 03:32:00,67.9,65.2,30.11,NE,56,2.0,4.0,91,0.00,,,0.00,0,Wunderground v.1.15,2013-11-11 08:32:00,
2013-11-11 03:42:00,67.8,65.1,30.11,NNE,16,3.0,3.0,91,0.00,,,0.00,0,Wunderground v.1.15,2013-11-11 08:42:00,
2013-11-11 03:52:00,67.6,64.9,30.11,ENE,64,5.0,7.0,91,0.00,,,0.00,0,Wunderground v.1.15,2013-11-11 08:52:00,
2013-11-11 04:02:00,67.4,64.7,30.11,NE,54,5.0,6.0,91,0.00,,,0.00,0,Wunderground v.1.15,2013-11-11 09:02:00,
2013-11-11 04:07:00,67.3,64.6,30.11,NE,52,5.0,7.0,91,0.00,,,0.00,0,Wunderground v.1.15,2013-11-11 09:07:00,
2013-11-11 04:17:00,67.3,64.6,30.11,ENE,61,4.0,8.0,91,0.00,,,0.00,0,Wunderground v.1.15,2013-11-11 09:17:00,
2013-11-11 04:27:00,67.1,64.4,30.11,ENE,58,4.0,4.0,91,0.00,,,0.00,0,Wunderground v.1.15,2013-11-11 09:27:00,
2013-11-11 04:37:00,66.9,64.2,30.11,NE,55,3.0,5.0,91,0.00,,,0.00,0,Wunderground v.1.15,2013-11-11 09:37:00,
2013-11-11 04:47:00,66.9,64.2,30.11,ENE,59,3.0,3.0,91,0.00,,,0.00,0,Wunderground v.1.15,2013-11-11 09:47:00,
2013-11-11 04:52:00,66.9,64.2,30.11,East,99,4.0,4.0,91,0.00,,,0.00,0,Wunderground v.1.15,2013-11-11 09:52:00,
2013-11-11 05:02:00,66.8,64.1,30.11,ENE,65,4.0,4.0,91,0.00,,,0.00,0,Wunderground v.1.15,2013-11-11 10:02:00,
2013-11-11 05:12:00,66.8,64.1,30.12,ENE,68,2.0,4.0,91,0.00,,,0.00,0,Wunderground v.1.15,2013-11-11 10:12:00,
2013-11-11 05:17:00,66.8,64.1,30.12,NNE,31,3.0,4.0,91,0.00,,,0.00,0,Wunderground v.1.15,2013-11-11 10:17:00,
2013-11-11 05:22:00,66.8,64.1,30.12,ENE,71,3.0,4.0,91,0.00,,,0.00,0,Wunderground v.1.15,2013-11-11 10:22:00,
2013-11-11 05:32:00,66.6,63.9,30.12,NE,41,3.0,3.0,91,0.00,,,0.00,0,Wunderground v.1.15,2013-11-11 10:32:00,
2013-11-11 05:42:00,66.6,63.6,30.12,NNE,27,3.0,6.0,90,0.00,,,0.00,0,Wunderground v.1.15,2013-11-11 10:42:00,
2013-11-11 05:47:00,66.4,63.4,30.12,NNE,28,2.0,6.0,90,0.00,,,0.00,0,Wunderground v.1.15,2013-11-11 10:47:00,
2013-11-11 05:57:00,66.4,63.4,30.12,NE,55,3.0,7.0,90,0.00,,,0.00,0,Wunderground v.1.15,2013-11-11 10:57:00,
2013-11-11 06:07:00,66.4,63.4,30.12,ENE,68,3.0,5.0,90,0.00,,,0.00,0,Wunderground v.1.15,2013-11-11 11:07:00,
2013-11-11 06:17:00,66.3,63.3,30.12,NE,55,3.0,6.0,90,0.00,,,0.00,0,Wunderground v.1.15,2013-11-11 11:17:00,
2013-11-11 06:27:00,66.3,63.3,30.13,NE,45,2.0,2.0,90,0.00,,,0.00,0,Wunderground v.1.15,2013-11-11 11:27:00,
2013-11-11 06:37:00,66.4,63.4,30.13,North,0,3.0,3.0,90,0.00,,,0.00,0,Wunderground v.1.15,2013-11-11 11:37:00,
2013-11-11 06:42:00,66.3,63.3,30.13,NE,35,3.0,4.0,90,0.00,,,0.00,0,Wunderground v.1.15,2013-11-11 11:42:00,
2013-11-11 06:52:00,66.3,63.3,30.13,NNE,13,4.0,8.0,90,0.00,,,0.00,0,Wunderground v.1.15,2013-11-11 11:52:00,
2013-11-11 06:57:00,66.3,63.3,30.13,ENE,72,5.0,8.0,90,0.00,,,0.00,0,Wunderground v.1.15,2013-11-11 11:57:00,
2013-11-11 07:07:00,66.4,63.4,30.13,NNE,21,4.0,6.0,90,0.00,,,0.00,19,Wunderground v.1.15,2013-11-11 12:07:00,
2013-11-11 07:17:00,66.4,63.1,30.14,ENE,62,4.0,7.0,89,0.00,,,0.00,19,Wunderground v.1.15,2013-11-11 12:17:00,
2013-11-11 07:22:00,66.4,63.1,30.14,ENE,78,3.0,5.0,89,0.00,,,0.00,23,Wunderground v.1.15,2013-11-11 12:22:00,
2013-11-11 07:32:00,66.6,63.3,30.14,NE,56,4.0,8.0,89,0.00,,,0.00,37,Wunderground v.1.15,2013-11-11 12:32:00,
2013-11-11 07:42:00,66.8,63.5,30.15,NE,44,4.0,4.0,89,0.00,,,0.00,58,Wunderground v.1.15,2013-11-11 12:42:00,
2013-11-11 07:52:00,66.9,63.6,30.15,NNE,25,4.0,4.0,89,0.00,,,0.00,37,Wunderground v.1.15,2013-11-11 12:52:00,
2013-11-11 07:57:00,67.1,63.4,30.15,ENE,73,4.0,4.0,88,0.00,,,0.00,42,Wunderground v.1.15,2013-11-11 12:57:00,
2013-11-11 08:07:00,67.1,63.4,30.15,NE,42,4.0,7.0,88,0.00,,,0.00,55,Wunderground v.1.15,2013-11-11 13:07:00,
2013-11-11 08:17:00,67.4,63.4,30.15,ENE,62,4.0,8.0,87,0.00,,,0.00,204,Wunderground v.1.15,2013-11-11 13:17:00,
2013-11-11 08:22:00,67.8,63.5,30.15,ENE,61,4.0,4.0,86,0.00,,,0.00,95,Wunderground v.1.15,2013-11-11 13:22:00,
2013-11-11 08:32:00,68.3,63.6,30.15,ESE,102,3.0,6.0,85,0.00,,,0.00,208,Wunderground v.1.15,2013-11-11 13:32:00,
2013-11-11 08:42:00,68.3,63.3,30.15,North,11,6.0,6.0,84,0.00,,,0.00,106,Wunderground v.1.15,2013-11-11 13:42:00,
2013-11-11 08:52:00,68.9,63.9,30.15,NE,38,4.0,4.0,84,0.00,,,0.00,276,Wunderground v.1.15,2013-11-11 13:52:00,
2013-11-11 09:02:00,69.6,63.5,30.15,East,88,7.0,7.0,81,0.00,,,0.00,234,Wunderground v.1.15,2013-11-11 14:02:00,
2013-11-11 09:07:00,69.9,63.4,30.15,NE,35,7.0,7.0,80,0.00,,,0.00,347,Wunderground v.1.15,2013-11-11 14:07:00,
2013-11-11 09:17:00,70.8,64.3,30.15,ENE,61,6.0,7.0,80,0.00,,,0.00,385,Wunderground v.1.15,2013-11-11 14:17:00,
2013-11-11 09:22:00,70.8,64.0,30.15,East,79,7.0,7.0,79,0.00,,,0.00,297,Wunderground v.1.15,2013-11-11 14:22:00,
2013-11-11 09:27:00,70.6,63.4,30.15,NE,41,6.0,7.0,78,0.00,,,0.00,454,Wunderground v.1.15,2013-11-11 14:27:00,
2013-11-11 09:37:00,71.5,63.9,30.15,ENE,66,6.0,6.0,77,0.00,,,0.00,392,Wunderground v.1.15,2013-11-11 14:37:00,
2013-11-11 09:42:00,72.0,64.4,30.15,North,11,6.0,7.0,77,0.00,,,0.00,433,Wunderground v.1.15,2013-11-11 14:42:00,
2013-11-11 09:52:00,72.0,64.4,30.15,NE,49,6.0,8.0,77,0.00,,,0.00,408,Wunderground v.1.15,2013-11-11 14:52:00,
2013-11-11 10:02:00,73.2,64.8,30.15,ENE,58,8.0,16.0,75,0.00,,,0.00,593,Wunderground v.1.15,2013-11-11 15:02:00,
2013-11-11 10:12:00,73.5,64.3,30.15,NE,38,7.0,7.0,73,0.00,,,0.00,509,Wunderground v.1.15,2013-11-11 15:12:00,
2013-11-11 10:22:00,74.6,65.8,30.15,ENE,66,5.0,8.0,74,0.00,,,0.00,607,Wunderground v.1.15,2013-11-11 15:22:00,
2013-11-11 10:27:00,74.6,65.4,30.15,East,79,6.0,8.0,73,0.00,,,0.00,611,Wunderground v.1.15,2013-11-11 15:27:00,
2013-11-11 10:37:00,75.1,65.5,30.15,ENE,65,7.0,10.0,72,0.00,,,0.00,486,Wunderground v.1.15,2013-11-11 15:37:00,
2013-11-11 10:47:00,75.8,65.7,30.14,East,83,6.0,8.0,71,0.00,,,0.00,676,Wunderground v.1.15,2013-11-11 15:47:00,
2013-11-11 10:57:00,76.3,65.8,30.14,East,92,6.0,6.0,70,0.00,,,0.00,681,Wunderground v.1.15,2013-11-11 15:57:00,
2013-11-11 11:07:00,76.5,66.0,30.14,ESE,109,6.0,7.0,70,0.00,,,0.00,704,Wunderground v.1.15,2013-11-11 16:07:00,
2013-11-11 11:12:00,77.2,66.2,30.14,NE,42,5.0,5.0,69,0.00,,,0.00,519,Wunderground v.1.15,2013-11-11 16:12:00,
2013-11-11 11:22:00,77.2,65.8,30.14,ENE,62,4.0,4.0,68,0.00,,,0.00,572,Wunderground v.1.15,2013-11-11 16:22:00,
2013-11-11 11:32:00,77.6,66.6,30.14,NNE,21,4.0,4.0,69,0.00,,,0.00,732,Wunderground v.1.15,2013-11-11 16:32:00,
2013-11-11 11:42:00,77.6,66.6,30.13,SE,136,3.0,5.0,69,0.00,,,0.00,711,Wunderground v.1.15,2013-11-11 16:42:00,
2013-11-11 11:52:00,78.3,67.3,30.13,ENE,58,3.0,5.0,69,0.00,,,0.00,609,Wunderground v.1.15,2013-11-11 16:52:00,
2013-11-11 11:57:00,78.3,66.4,30.13,NE,52,2.0,5.0,67,0.00,,,0.00,681,Wunderground v.1.15,2013-11-11 16:57:00,
2013-11-11 12:07:00,78.6,66.7,30.12,NNE,32,3.0,6.0,67,0.00,,,0.00,660,Wunderground v.1.15,2013-11-11 17:07:00,
2013-11-11 12:12:00,78.6,67.6,30.12,ENE,69,4.0,6.0,69,0.00,,,0.00,760,Wunderground v.1.15,2013-11-11 17:12:00,
2013-11-11 12:17:00,79.4,67.5,30.12,NE,54,3.0,6.0,67,0.00,,,0.00,658,Wunderground v.1.15,2013-11-11 17:17:00,
2013-11-11 12:27:00,79.2,66.9,30.11,ENE,61,3.0,6.0,66,0.00,,,0.00,509,Wunderground v.1.15,2013-11-11 17:27:00,
2013-11-11 12:37:00,78.8,66.9,30.11,North,359,3.0,3.0,67,0.00,,,0.00,491,Wunderground v.1.15,2013-11-11 17:37:00,
2013-11-11 12:42:00,78.8,66.9,30.10,North,0,2.0,4.0,67,0.00,,,0.00,494,Wunderground v.1.15,2013-11-11 17:42:00,
2013-11-11 12:47:00,79.4,67.5,30.10,NE,45,2.0,5.0,67,0.00,,,0.00,552,Wunderground v.1.15,2013-11-11 17:47:00,
2013-11-11 12:57:00,79.4,67.0,30.10,ENE,69,3.0,6.0,66,0.00,,,0.00,496,Wunderground v.1.15,2013-11-11 17:57:00,
2013-11-11 13:07:00,79.6,67.2,30.10,ENE,61,3.0,5.0,66,0.00,,,0.00,551,Wunderground v.1.15,2013-11-11 18:07:00,
2013-11-11 13:12:00,79.9,66.6,30.10,ESE,106,3.0,3.0,64,0.00,,,0.00,589,Wunderground v.1.15,2013-11-11 18:12:00,
2013-11-11 13:22:00,80.5,67.2,30.09,East,86,3.0,5.0,64,0.00,,,0.00,644,Wunderground v.1.15,2013-11-11 18:22:00,
2013-11-11 13:32:00,80.9,67.6,30.09,ESE,119,3.0,3.0,64,0.00,,,0.00,679,Wunderground v.1.15,2013-11-11 18:32:00,
2013-11-11 13:37:00,81.2,67.4,30.08,SSE,147,4.0,6.0,63,0.00,,,0.00,537,Wunderground v.1.15,2013-11-11 18:37:00,
2013-11-11 13:47:00,80.7,66.5,30.08,ESE,120,3.0,10.0,62,0.00,,,0.00,447,Wunderground v.1.15,2013-11-11 18:47:00,
2013-11-11 13:57:00,81.2,66.0,30.07,ESE,104,4.0,5.0,60,0.00,,,0.00,630,Wunderground v.1.15,2013-11-11 18:57:00,
2013-11-11 14:07:00,80.9,65.7,30.07,ENE,71,3.0,3.0,60,0.00,,,0.00,646,Wunderground v.1.15,2013-11-11 19:07:00,
2013-11-11 14:17:00,80.9,65.2,30.07,SE,126,3.0,5.0,59,0.00,,,0.00,326,Wunderground v.1.15,2013-11-11 19:17:00,
2013-11-11 14:27:00,82.2,66.9,30.07,East,86,2.0,7.0,60,0.00,,,0.00,591,Wunderground v.1.15,2013-11-11 19:27:00,
2013-11-11 14:32:00,81.8,65.1,30.06,East,86,3.0,3.0,57,0.00,,,0.00,558,Wunderground v.1.15,2013-11-11 19:32:00,
2013-11-11 14:42:00,82.2,64.9,30.06,ENE,61,3.0,3.0,56,0.00,,,0.00,575,Wunderground v.1.15,2013-11-11 19:42:00,
2013-11-11 14:47:00,82.2,65.4,30.06,ESE,110,3.0,5.0,57,0.00,,,0.00,509,Wunderground v.1.15,2013-11-11 19:47:00,
2013-11-11 14:52:00,82.4,66.1,30.06,SE,128,3.0,3.0,58,0.00,,,0.00,533,Wunderground v.1.15,2013-11-11 19:52:00,
2013-11-11 15:02:00,82.0,64.8,30.06,ENE,78,3.0,3.0,56,0.00,,,0.00,512,Wunderground v.1.15,2013-11-11 20:02:00,
2013-11-11 15:12:00,81.6,64.9,30.06,ESE,120,4.0,4.0,57,0.00,,,0.00,287,Wunderground v.1.15,2013-11-11 20:12:00,
2013-11-11 15:17:00,81.6,64.9,30.06,ENE,75,4.0,4.0,57,0.00,,,0.00,283,Wunderground v.1.15,2013-11-11 20:17:00,
2013-11-11 15:27:00,81.8,65.1,30.06,East,79,3.0,3.0,57,0.00,,,0.00,377,Wunderground v.1.15,2013-11-11 20:27:00,
2013-11-11 15:37:00,81.2,64.0,30.06,ENE,72,4.0,6.0,56,0.00,,,0.00,362,Wunderground v.1.15,2013-11-11 20:37:00,
2013-11-11 15:47:00,81.8,65.1,30.06,ENE,68,3.0,4.0,57,0.00,,,0.00,392,Wunderground v.1.15,2013-11-11 20:47:00,
2013-11-11 15:57:00,82.0,65.3,30.06,East,100,2.0,5.0,57,0.00,,,0.00,289,Wunderground v.1.15,2013-11-11 20:57:00,
2013-11-11 16:02:00,81.4,64.2,30.06,ESE,104,3.0,4.0,56,0.00,,,0.00,292,Wunderground v.1.15,2013-11-11 21:02:00,
2013-11-11 16:12:00,81.1,64.4,30.06,East,97,4.0,4.0,57,0.00,,,0.00,271,Wunderground v.1.15,2013-11-11 21:12:00,
2013-11-11 16:22:00,80.7,64.5,30.06,ENE,72,3.0,3.0,58,0.00,,,0.00,65,Wunderground v.1.15,2013-11-11 21:22:00,
2013-11-11 16:32:00,80.3,64.2,30.06,ENE,73,3.0,3.0,58,0.00,,,0.00,172,Wunderground v.1.15,2013-11-11 21:32:00,
2013-11-11 16:37:00,80.3,64.2,30.06,ENE,65,3.0,3.0,58,0.00,,,0.00,174,Wunderground v.1.15,2013-11-11 21:37:00,
2013-11-11 16:47:00,80.3,64.7,30.06,East,80,3.0,3.0,59,0.00,,,0.00,114,Wunderground v.1.15,2013-11-11 21:47:00,
2013-11-11 16:57:00,80.3,64.7,30.06,East,83,1.0,2.0,59,0.00,,,0.00,40,Wunderground v.1.15,2013-11-11 21:57:00,
2013-11-11 17:02:00,80.3,64.7,30.06,ENE,62,2.0,2.0,59,0.00,,,0.00,35,Wunderground v.1.15,2013-11-11 22:02:00,
2013-11-11 17:07:00,80.3,64.7,30.06,ENE,62,1.0,2.0,59,0.00,,,0.00,33,Wunderground v.1.15,2013-11-11 22:07:00,
2013-11-11 17:17:00,80.1,64.5,30.06,NNW,333,1.0,2.0,59,0.00,,,0.00,12,Wunderground v.1.15,2013-11-11 22:17:00,
2013-11-11 17:27:00,79.6,65.9,30.06,NNW,330,2.0,3.0,63,0.00,,,0.00,9,Wunderground v.1.15,2013-11-11 22:27:00,
2013-11-11 17:37:00,78.8,66.0,30.06,NW,326,2.0,3.0,65,0.00,,,0.00,0,Wunderground v.1.15,2013-11-11 22:37:00,
2013-11-11 17:47:00,77.9,66.1,30.06,NNW,328,2.0,3.0,67,0.00,,,0.00,0,Wunderground v.1.15,2013-11-11 22:47:00,
2013-11-11 17:52:00,77.6,65.8,30.06,NNW,340,2.0,2.0,67,0.00,,,0.00,0,Wunderground v.1.15,2013-11-11 22:52:00,
2013-11-11 18:02:00,76.8,65.4,30.06,NNW,333,2.0,2.0,68,0.00,,,0.00,0,Wunderground v.1.15,2013-11-11 23:02:00,
2013-11-11 18:12:00,76.3,65.4,30.07,North,349,1.0,3.0,69,0.00,,,0.00,0,Wunderground v.1.15,2013-11-11 23:12:00,
2013-11-11 18:17:00,76.0,65.5,30.07,NNW,335,2.0,3.0,70,0.00,,,0.00,0,Wunderground v.1.15,2013-11-11 23:17:00,
2013-11-11 18:22:00,75.8,65.7,30.07,NNW,333,2.0,2.0,71,0.00,,,0.00,0,Wunderground v.1.15,2013-11-11 23:22:00,
2013-11-11 18:32:00,75.1,65.5,30.07,North,0,1.0,1.0,72,0.00,,,0.00,0,Wunderground v.1.15,2013-11-11 23:32:00,
2013-11-11 18:42:00,74.7,65.5,30.07,North,0,1.0,3.0,73,0.00,,,0.00,0,Wunderground v.1.15,2013-11-11 23:42:00,
2013-11-11 18:52:00,74.2,65.4,30.07,North,0,3.0,3.0,74,0.00,,,0.00,0,Wunderground v.1.15,2013-11-11 23:52:00,
2013-11-11 19:02:00,73.9,65.5,30.07,NNW,330,2.0,3.0,75,0.00,,,0.00,0,Wunderground v.1.15,2013-11-12 00:02:00,
2013-11-11 19:07:00,73.7,65.7,30.07,North,349,2.0,3.0,76,0.00,,,0.00,0,Wunderground v.1.15,2013-11-12 00:07:00,
2013-11-11 19:17:00,73.5,65.5,30.08,NW,318,2.0,2.0,76,0.00,,,0.00,0,Wunderground v.1.15,2013-11-12 00:17:00,
2013-11-11 19:27:00,73.2,65.2,30.08,NW,323,2.0,3.0,76,0.00,,,0.00,0,Wunderground v.1.15,2013-11-12 00:27:00,
2013-11-11 19:37:00,73.0,65.4,30.08,North,0,2.0,2.0,77,0.00,,,0.00,0,Wunderground v.1.15,2013-11-12 00:37:00,
2013-11-11 19:47:00,72.8,65.5,30.08,NW,322,2.0,2.0,78,0.00,,,0.00,0,Wunderground v.1.15,2013-11-12 00:47:00,
2013-11-11 19:57:00,72.7,65.4,30.08,NNW,333,2.0,3.0,78,0.00,,,0.00,0,Wunderground v.1.15,2013-11-12 00:57:00,
2013-11-11 20:02:00,72.7,65.8,30.08,NNW,339,2.0,3.0,79,0.00,,,0.00,0,Wunderground v.1.15,2013-11-12 01:02:00,
2013-11-11 20:12:00,72.5,66.0,30.08,NW,319,2.0,2.0,80,0.00,,,0.00,0,Wunderground v.1.15,2013-11-12 01:12:00,
2013-11-11 20:22:00,72.3,65.8,30.08,NW,326,2.0,4.0,80,0.00,,,0.00,0,Wunderground v.1.15,2013-11-12 01:22:00,
2013-11-11 20:27:00,72.1,65.9,30.08,NW,322,2.0,4.0,81,0.00,,,0.00,0,Wunderground v.1.15,2013-11-12 01:27:00,
2013-11-11 20:37:00,72.0,65.8,30.09,North,354,2.0,5.0,81,0.00,,,0.00,0,Wunderground v.1.15,2013-11-12 01:37:00,
2013-11-11 20:47:00,71.8,66.0,30.09,NNW,343,1.0,1.0,82,0.00,,,0.00,0,Wunderground v.1.15,2013-11-12 01:47:00,
2013-11-11 20:57:00,71.5,65.7,30.08,NNW,336,1.0,2.0,82,0.00,,,0.00,0,Wunderground v.1.15,2013-11-12 01:57:00,
2013-11-11 21:02:00,71.3,65.9,30.08,NNW,336,1.0,1.0,83,0.00,,,0.00,0,Wunderground v.1.15,2013-11-12 02:02:00,
2013-11-11 21:12:00,71.1,65.7,30.09,North,350,1.0,2.0,83,0.00,,,0.00,0,Wunderground v.1.15,2013-11-12 02:12:00,
2013-11-11 21:17:00,70.9,65.5,30.09,NNW,344,1.0,2.0,83,0.00,,,0.00,0,Wunderground v.1.15,2013-11-12 02:17:00,
2013-11-11 21:27:00,70.8,65.7,30.09,NNW,340,1.0,1.0,84,0.00,,,0.00,0,Wunderground v.1.15,2013-11-12 02:27:00,
2013-11-11 21:32:00,70.8,65.7,30.09,NNW,342,1.0,3.0,84,0.00,,,0.00,0,Wunderground v.1.15,2013-11-12 02:32:00,
2013-11-11 21:42:00,70.6,65.9,30.09,NW,325,1.0,4.0,85,0.00,,,0.00,0,Wunderground v.1.15,2013-11-12 02:42:00,
2013-11-11 21:52:00,70.4,65.7,30.09,NNW,344,1.0,1.0,85,0.00,,,0.00,0,Wunderground v.1.15,2013-11-12 02:52:00,
2013-11-11 22:02:00,70.3,65.6,30.10,NNW,344,1.0,1.0,85,0.00,,,0.00,0,Wunderground v.1.15,2013-11-12 03:02:00,
2013-11-11 22:12:00,70.1,65.7,30.10,NNW,344,0.0,0.0,86,0.00,,,0.00,0,Wunderground v.1.15,2013-11-12 03:12:00,
2013-11-11 22:22:00,69.9,65.5,30.10,NNW,344,0.0,0.0,86,0.00,,,0.00,0,Wunderground v.1.15,2013-11-12 03:22:00,
2013-11-11 22:32:00,69.6,65.2,30.10,East,85,1.0,1.0,86,0.00,,,0.00,0,Wunderground v.1.15,2013-11-12 03:32:00,
2013-11-11 22:42:00,69.4,65.0,30.10,NNW,339,0.0,0.0,86,0.00,,,0.00,0,Wunderground v.1.15,2013-11-12 03:42:00,
2013-11-11 22:47:00,69.4,65.4,30.10,NNW,339,0.0,0.0,87,0.00,,,0.00,0,Wunderground v.1.15,2013-11-12 03:47:00,
2013-11-11 22:52:00,69.3,64.9,30.10,NNW,339,0.0,0.0,86,0.00,,,0.00,0,Wunderground v.1.15,2013-11-12 03:52:00,
2013-11-11 23:02:00,69.1,65.1,30.10,NNW,339,0.0,0.0,87,0.00,,,0.00,0,Wunderground v.1.15,2013-11-12 04:02:00,
2013-11-11 23:12:00,68.8,64.8,30.10,NNW,339,0.0,0.0,87,0.00,,,0.00,0,Wunderground v.1.15,2013-11-12 04:12:00,
2013-11-11 23:22:00,68.4,64.4,30.10,NNW,339,0.0,0.0,87,0.00,,,0.00,0,Wunderground v.1.15,2013-11-12 04:22:00,
2013-11-11 23:32:00,68.3,64.3,30.10,NNW,339,0.0,0.0,87,0.00,,,0.00,0,Wunderground v.1.15,2013-11-12 04:32:00,
2013-11-11 23:42:00,68.1,64.1,30.10,NNW,339,0.0,0.0,87,0.00,,,0.00,0,Wunderground v.1.15,2013-11-12 04:42:00,
2013-11-11 23:52:00,67.8,63.8,30.09,NNW,339,0.0,0.0,87,0.00,,,0.00,0,Wunderground v.1.15,2013-11-12 04:52:00,